sensor_id;sensor_type;location;lat;lon;timestamp;P1;durP1;ratioP1;P2;durP2;ratioP2
61675;SDS011;47574;52.090;5.244;2022-12-07T00:02:03;9.71;;;4.41;;
61675;SDS011;47574;52.090;5.244;2022-12-07T00:03:39;10.21;;;4.8;;
61675;SDS011;47574;52.090;5.244;2022-12-07T00:05:17;11.1;;;4.61;;
61675;SDS011;47574;52.090;5.244;2022-12-07T00:06:53;9.31;;;4.5;;
61675;SDS011;47574;52.090;5.244;2022-12-07T00:10:07;9.6;;;4.2;;
61675;SDS011;47574;52.090;5.244;2022-12-07T00:11:44;8.6;;;4.41;;
61675;SDS011;47574;52.090;5.244;2022-12-07T00:13:25;9.6;;;4.1;;
61675;SDS011;47574;52.090;5.244;2022-12-07T00:16:38;7.9;;;3.8;;
61675;SDS011;47574;52.090;5.244;2022-12-07T00:18:15;9.5;;;4.0;;
61675;SDS011;47574;52.090;5.244;2022-12-07T00:19:51;7.8;;;3.8;;
61675;SDS011;47574;52.090;5.244;2022-12-07T00:21:29;8.2;;;4.3;;
61675;SDS011;47574;52.090;5.244;2022-12-07T00:24:43;8.1;;;4.5;;
61675;SDS011;47574;52.090;5.244;2022-12-07T00:26:20;9.21;;;4.5;;
61675;SDS011;47574;52.090;5.244;2022-12-07T00:27:57;9.81;;;4.91;;
61675;SDS011;47574;52.090;5.244;2022-12-07T00:31:10;9.5;;;4.1;;
61675;SDS011;47574;52.090;5.244;2022-12-07T00:32:48;8.71;;;4.0;;
61675;SDS011;47574;52.090;5.244;2022-12-07T00:34:24;7.2;;;3.9;;
61675;SDS011;47574;52.090;5.244;2022-12-07T00:37:38;7.6;;;3.7;;
61675;SDS011;47574;52.090;5.244;2022-12-07T00:39:15;9.1;;;3.3;;
61675;SDS011;47574;52.090;5.244;2022-12-07T00:40:54;8.81;;;3.4;;
61675;SDS011;47574;52.090;5.244;2022-12-07T00:42:32;7.2;;;3.4;;
61675;SDS011;47574;52.090;5.244;2022-12-07T00:45:44;10.5;;;3.3;;
61675;SDS011;47574;52.090;5.244;2022-12-07T00:47:20;8.0;;;3.3;;
61675;SDS011;47574;52.090;5.244;2022-12-07T00:48:57;8.31;;;3.3;;
61675;SDS011;47574;52.090;5.244;2022-12-07T00:52:09;9.4;;;3.4;;
61675;SDS011;47574;52.090;5.244;2022-12-07T00:53:45;6.6;;;3.1;;
61675;SDS011;47574;52.090;5.244;2022-12-07T00:55:22;6.4;;;2.7;;
61675;SDS011;47574;52.090;5.244;2022-12-07T00:56:58;6.8;;;3.1;;
61675;SDS011;47574;52.090;5.244;2022-12-07T01:00:11;6.2;;;3.0;;
61675;SDS011;47574;52.090;5.244;2022-12-07T01:01:48;6.5;;;3.2;;
61675;SDS011;47574;52.090;5.244;2022-12-07T01:03:24;7.2;;;3.4;;
61675;SDS011;47574;52.090;5.244;2022-12-07T01:06:38;6.9;;;3.3;;
61675;SDS011;47574;52.090;5.244;2022-12-07T01:08:14;6.3;;;3.1;;
61675;SDS011;47574;52.090;5.244;2022-12-07T01:09:50;8.31;;;2.9;;
61675;SDS011;47574;52.090;5.244;2022-12-07T01:13:05;6.7;;;3.2;;
61675;SDS011;47574;52.090;5.244;2022-12-07T01:14:41;7.1;;;3.4;;
61675;SDS011;47574;52.090;5.244;2022-12-07T01:16:18;8.4;;;3.6;;
61675;SDS011;47574;52.090;5.244;2022-12-07T01:17:56;8.71;;;3.0;;
61675;SDS011;47574;52.090;5.244;2022-12-07T01:21:09;9.0;;;3.4;;
61675;SDS011;47574;52.090;5.244;2022-12-07T01:22:47;8.2;;;3.1;;
61675;SDS011;47574;52.090;5.244;2022-12-07T01:24:23;7.1;;;2.7;;
61675;SDS011;47574;52.090;5.244;2022-12-07T01:27:39;9.5;;;2.9;;
61675;SDS011;47574;52.090;5.244;2022-12-07T01:29:15;6.2;;;3.2;;
61675;SDS011;47574;52.090;5.244;2022-12-07T01:30:55;9.4;;;3.0;;
61675;SDS011;47574;52.090;5.244;2022-12-07T01:32:32;7.8;;;3.0;;
61675;SDS011;47574;52.090;5.244;2022-12-07T01:35:45;7.0;;;3.4;;
61675;SDS011;47574;52.090;5.244;2022-12-07T01:37:22;7.4;;;3.0;;
61675;SDS011;47574;52.090;5.244;2022-12-07T01:38:58;6.4;;;3.0;;
61675;SDS011;47574;52.090;5.244;2022-12-07T01:42:12;6.7;;;2.9;;
61675;SDS011;47574;52.090;5.244;2022-12-07T01:44:21;11.7;;;3.5;;
61675;SDS011;47574;52.090;5.244;2022-12-07T01:45:59;7.1;;;3.7;;
61675;SDS011;47574;52.090;5.244;2022-12-07T01:47:39;7.2;;;3.6;;
61675;SDS011;47574;52.090;5.244;2022-12-07T01:49:18;10.0;;;3.8;;
61675;SDS011;47574;52.090;5.244;2022-12-07T01:52:42;6.8;;;4.0;;
61675;SDS011;47574;52.090;5.244;2022-12-07T01:54:24;9.21;;;3.9;;
61675;SDS011;47574;52.090;5.244;2022-12-07T01:56:01;7.6;;;3.4;;
61675;SDS011;47574;52.090;5.244;2022-12-07T01:57:40;5.8;;;3.0;;
61675;SDS011;47574;52.090;5.244;2022-12-07T02:00:59;8.71;;;3.8;;
61675;SDS011;47574;52.090;5.244;2022-12-07T02:02:36;8.2;;;3.2;;
61675;SDS011;47574;52.090;5.244;2022-12-07T02:04:17;10.5;;;3.4;;
61675;SDS011;47574;52.090;5.244;2022-12-07T02:07:33;11.9;;;3.2;;
61675;SDS011;47574;52.090;5.244;2022-12-07T02:09:14;9.4;;;3.5;;
61675;SDS011;47574;52.090;5.244;2022-12-07T02:10:51;9.5;;;3.2;;
61675;SDS011;47574;52.090;5.244;2022-12-07T02:12:27;9.1;;;3.4;;
61675;SDS011;47574;52.090;5.244;2022-12-07T02:15:45;9.21;;;3.0;;
61675;SDS011;47574;52.090;5.244;2022-12-07T02:17:40;9.0;;;2.6;;
61675;SDS011;47574;52.090;5.244;2022-12-07T02:19:40;8.81;;;2.6;;
61675;SDS011;47574;52.090;5.244;2022-12-07T02:22:13;7.8;;;2.4;;
61675;SDS011;47574;52.090;5.244;2022-12-07T02:24:42;7.5;;;2.6;;
61675;SDS011;47574;52.090;5.244;2022-12-07T02:26:55;9.1;;;2.7;;
61675;SDS011;47574;52.090;5.244;2022-12-07T02:29:30;6.5;;;2.4;;
61675;SDS011;47574;52.090;5.244;2022-12-07T02:31:12;11.0;;;3.0;;
61675;SDS011;47574;52.090;5.244;2022-12-07T02:34:40;7.5;;;2.31;;
61675;SDS011;47574;52.090;5.244;2022-12-07T02:36:25;7.4;;;2.5;;
61675;SDS011;47574;52.090;5.244;2022-12-07T02:38:10;9.5;;;2.5;;
61675;SDS011;47574;52.090;5.244;2022-12-07T02:39:53;7.3;;;2.1;;
61675;SDS011;47574;52.090;5.244;2022-12-07T02:41:35;5.7;;;2.1;;
61675;SDS011;47574;52.090;5.244;2022-12-07T02:44:59;8.2;;;2.6;;
61675;SDS011;47574;52.090;5.244;2022-12-07T02:46:41;10.21;;;2.5;;
61675;SDS011;47574;52.090;5.244;2022-12-07T02:48:20;6.0;;;2.31;;
61675;SDS011;47574;52.090;5.244;2022-12-07T02:49:57;7.4;;;2.31;;
61675;SDS011;47574;52.090;5.244;2022-12-07T02:53:46;6.8;;;2.21;;
61675;SDS011;47574;52.090;5.244;2022-12-07T02:55:23;7.5;;;2.21;;
61675;SDS011;47574;52.090;5.244;2022-12-07T02:57:07;7.4;;;2.7;;
61675;SDS011;47574;52.090;5.244;2022-12-07T02:59:00;8.0;;;2.8;;
61675;SDS011;47574;52.090;5.244;2022-12-07T03:00:55;8.5;;;2.4;;
61675;SDS011;47574;52.090;5.244;2022-12-07T03:02:48;10.1;;;2.6;;
61675;SDS011;47574;52.090;5.244;2022-12-07T03:06:20;7.5;;;2.5;;
61675;SDS011;47574;52.090;5.244;2022-12-07T03:08:05;9.6;;;2.6;;
61675;SDS011;47574;52.090;5.244;2022-12-07T03:09:51;8.2;;;2.8;;
61675;SDS011;47574;52.090;5.244;2022-12-07T03:11:37;10.1;;;3.1;;
61675;SDS011;47574;52.090;5.244;2022-12-07T03:13:22;8.5;;;3.0;;
61675;SDS011;47574;52.090;5.244;2022-12-07T03:15:05;7.2;;;2.31;;
61675;SDS011;47574;52.090;5.244;2022-12-07T03:18:32;8.0;;;2.6;;
61675;SDS011;47574;52.090;5.244;2022-12-07T03:20:15;11.7;;;2.8;;
61675;SDS011;47574;52.090;5.244;2022-12-07T03:21:57;6.4;;;1.8;;
61675;SDS011;47574;52.090;5.244;2022-12-07T03:23:39;7.5;;;2.1;;
61675;SDS011;47574;52.090;5.244;2022-12-07T03:26:58;8.5;;;2.31;;
61675;SDS011;47574;52.090;5.244;2022-12-07T03:28:49;7.5;;;2.21;;
61675;SDS011;47574;52.090;5.244;2022-12-07T03:30:31;7.8;;;2.31;;
61675;SDS011;47574;52.090;5.244;2022-12-07T03:32:14;7.9;;;2.21;;
61675;SDS011;47574;52.090;5.244;2022-12-07T03:34:02;7.4;;;2.21;;
61675;SDS011;47574;52.090;5.244;2022-12-07T03:37:36;5.8;;;2.0;;
61675;SDS011;47574;52.090;5.244;2022-12-07T03:39:21;6.8;;;2.21;;
61675;SDS011;47574;52.090;5.244;2022-12-07T03:41:03;5.0;;;2.0;;
61675;SDS011;47574;52.090;5.244;2022-12-07T03:42:45;9.6;;;2.21;;
61675;SDS011;47574;52.090;5.244;2022-12-07T03:44:22;6.6;;;2.1;;
61675;SDS011;47574;52.090;5.244;2022-12-07T03:47:52;8.81;;;2.1;;
61675;SDS011;47574;52.090;5.244;2022-12-07T03:49:40;5.8;;;1.9;;
61675;SDS011;47574;52.090;5.244;2022-12-07T03:51:22;8.31;;;2.4;;
61675;SDS011;47574;52.090;5.244;2022-12-07T03:53:05;5.3;;;1.8;;
61675;SDS011;47574;52.090;5.244;2022-12-07T03:54:48;8.0;;;2.4;;
61675;SDS011;47574;52.090;5.244;2022-12-07T03:58:12;6.1;;;2.21;;
61675;SDS011;47574;52.090;5.244;2022-12-07T03:59:53;5.0;;;2.31;;
61675;SDS011;47574;52.090;5.244;2022-12-07T04:01:31;7.1;;;2.31;;
61675;SDS011;47574;52.090;5.244;2022-12-07T04:04:45;6.1;;;2.4;;
61675;SDS011;47574;52.090;5.244;2022-12-07T04:06:21;5.6;;;2.0;;
61675;SDS011;47574;52.090;5.244;2022-12-07T04:07:57;7.9;;;2.5;;
61675;SDS011;47574;52.090;5.244;2022-12-07T04:09:33;7.4;;;2.5;;
61675;SDS011;47574;52.090;5.244;2022-12-07T04:12:46;7.2;;;2.6;;
61675;SDS011;47574;52.090;5.244;2022-12-07T04:14:22;3.8;;;2.1;;
61675;SDS011;47574;52.090;5.244;2022-12-07T04:15:59;8.0;;;2.6;;
61675;SDS011;47574;52.090;5.244;2022-12-07T04:19:12;7.1;;;2.21;;
61675;SDS011;47574;52.090;5.244;2022-12-07T04:20:49;7.5;;;2.4;;
61675;SDS011;47574;52.090;5.244;2022-12-07T04:22:25;7.3;;;2.5;;
61675;SDS011;47574;52.090;5.244;2022-12-07T04:25:39;7.8;;;2.21;;
61675;SDS011;47574;52.090;5.244;2022-12-07T04:27:16;5.0;;;2.0;;
61675;SDS011;47574;52.090;5.244;2022-12-07T04:28:52;5.9;;;2.5;;
61675;SDS011;47574;52.090;5.244;2022-12-07T04:30:28;6.7;;;2.4;;
61675;SDS011;47574;52.090;5.244;2022-12-07T04:33:41;6.3;;;1.7;;
61675;SDS011;47574;52.090;5.244;2022-12-07T04:35:17;6.5;;;1.8;;
61675;SDS011;47574;52.090;5.244;2022-12-07T04:36:53;6.5;;;1.6;;
61675;SDS011;47574;52.090;5.244;2022-12-07T04:40:06;5.8;;;2.0;;
61675;SDS011;47574;52.090;5.244;2022-12-07T04:41:44;6.9;;;1.8;;
61675;SDS011;47574;52.090;5.244;2022-12-07T04:43:21;4.91;;;2.0;;
61675;SDS011;47574;52.090;5.244;2022-12-07T04:46:33;4.8;;;1.8;;
61675;SDS011;47574;52.090;5.244;2022-12-07T04:48:09;8.2;;;2.1;;
61675;SDS011;47574;52.090;5.244;2022-12-07T04:49:45;11.1;;;2.5;;
61675;SDS011;47574;52.090;5.244;2022-12-07T04:51:22;6.7;;;1.9;;
61675;SDS011;47574;52.090;5.244;2022-12-07T04:54:37;9.1;;;2.21;;
61675;SDS011;47574;52.090;5.244;2022-12-07T04:56:13;7.4;;;1.9;;
61675;SDS011;47574;52.090;5.244;2022-12-07T04:57:50;9.6;;;2.31;;
61675;SDS011;47574;52.090;5.244;2022-12-07T05:01:03;7.6;;;1.8;;
61675;SDS011;47574;52.090;5.244;2022-12-07T05:02:39;5.2;;;1.9;;
61675;SDS011;47574;52.090;5.244;2022-12-07T05:04:16;7.4;;;1.8;;
61675;SDS011;47574;52.090;5.244;2022-12-07T05:07:28;6.5;;;1.8;;
61675;SDS011;47574;52.090;5.244;2022-12-07T05:09:04;6.1;;;1.8;;
61675;SDS011;47574;52.090;5.244;2022-12-07T05:10:41;5.5;;;1.7;;
61675;SDS011;47574;52.090;5.244;2022-12-07T05:12:18;5.2;;;1.7;;
61675;SDS011;47574;52.090;5.244;2022-12-07T05:15:31;8.4;;;1.8;;
61675;SDS011;47574;52.090;5.244;2022-12-07T05:17:07;5.0;;;1.8;;
61675;SDS011;47574;52.090;5.244;2022-12-07T05:18:43;5.11;;;2.0;;
61675;SDS011;47574;52.090;5.244;2022-12-07T05:21:56;6.5;;;2.1;;
61675;SDS011;47574;52.090;5.244;2022-12-07T05:23:32;8.5;;;2.5;;
61675;SDS011;47574;52.090;5.244;2022-12-07T05:25:08;4.5;;;1.8;;
61675;SDS011;47574;52.090;5.244;2022-12-07T05:28:22;7.3;;;2.21;;
61675;SDS011;47574;52.090;5.244;2022-12-07T05:29:58;9.21;;;2.1;;
61675;SDS011;47574;52.090;5.244;2022-12-07T05:31:34;6.7;;;2.1;;
61675;SDS011;47574;52.090;5.244;2022-12-07T05:33:10;8.0;;;2.21;;
61675;SDS011;47574;52.090;5.244;2022-12-07T05:36:23;6.3;;;2.4;;
61675;SDS011;47574;52.090;5.244;2022-12-07T05:37:59;4.41;;;1.9;;
61675;SDS011;47574;52.090;5.244;2022-12-07T05:39:34;7.3;;;2.4;;
61675;SDS011;47574;52.090;5.244;2022-12-07T05:43:47;6.5;;;2.4;;
61675;SDS011;47574;52.090;5.244;2022-12-07T05:47:00;8.6;;;2.7;;
61675;SDS011;47574;52.090;5.244;2022-12-07T05:48:36;7.8;;;2.4;;
61675;SDS011;47574;52.090;5.244;2022-12-07T05:50:12;5.9;;;2.4;;
61675;SDS011;47574;52.090;5.244;2022-12-07T05:53:24;10.0;;;2.9;;
61675;SDS011;47574;52.090;5.244;2022-12-07T05:55:01;4.91;;;2.4;;
61675;SDS011;47574;52.090;5.244;2022-12-07T05:56:37;5.9;;;2.5;;
61675;SDS011;47574;52.090;5.244;2022-12-07T05:59:30;6.6;;;2.7;;
61675;SDS011;47574;52.090;5.244;2022-12-07T06:01:06;8.9;;;3.1;;
61675;SDS011;47574;52.090;5.244;2022-12-07T06:02:42;6.7;;;3.3;;
61675;SDS011;47574;52.090;5.244;2022-12-07T06:05:56;11.7;;;3.5;;
61675;SDS011;47574;52.090;5.244;2022-12-07T06:07:32;6.1;;;3.1;;
61675;SDS011;47574;52.090;5.244;2022-12-07T06:09:08;6.7;;;3.2;;
61675;SDS011;47574;52.090;5.244;2022-12-07T06:12:39;11.0;;;3.3;;
61675;SDS011;47574;52.090;5.244;2022-12-07T06:14:16;8.71;;;3.1;;
61675;SDS011;47574;52.090;5.244;2022-12-07T06:15:52;6.8;;;2.9;;
61675;SDS011;47574;52.090;5.244;2022-12-07T06:17:28;8.1;;;3.2;;
61675;SDS011;47574;52.090;5.244;2022-12-07T06:20:40;7.0;;;3.4;;
61675;SDS011;47574;52.090;5.244;2022-12-07T06:22:17;7.9;;;3.5;;
61675;SDS011;47574;52.090;5.244;2022-12-07T06:23:54;8.1;;;3.6;;
61675;SDS011;47574;52.090;5.244;2022-12-07T06:25:30;7.4;;;3.6;;
61675;SDS011;47574;52.090;5.244;2022-12-07T06:28:43;6.3;;;3.4;;
61675;SDS011;47574;52.090;5.244;2022-12-07T06:30:19;5.9;;;3.3;;
61675;SDS011;47574;52.090;5.244;2022-12-07T06:31:55;6.4;;;3.0;;
61675;SDS011;47574;52.090;5.244;2022-12-07T06:35:08;7.8;;;3.0;;
61675;SDS011;47574;52.090;5.244;2022-12-07T06:36:45;8.81;;;3.5;;
61675;SDS011;47574;52.090;5.244;2022-12-07T06:38:23;9.9;;;3.4;;
61675;SDS011;47574;52.090;5.244;2022-12-07T06:41:36;5.6;;;3.1;;
61675;SDS011;47574;52.090;5.244;2022-12-07T06:43:13;16.61;;;10.5;;
61675;SDS011;47574;52.090;5.244;2022-12-07T06:44:50;14.3;;;8.31;;
61675;SDS011;47574;52.090;5.244;2022-12-07T06:46:26;12.1;;;7.0;;
61675;SDS011;47574;52.090;5.244;2022-12-07T06:49:38;10.0;;;6.4;;
61675;SDS011;47574;52.090;5.244;2022-12-07T06:51:15;10.4;;;5.6;;
61675;SDS011;47574;52.090;5.244;2022-12-07T06:52:52;10.1;;;5.0;;
61675;SDS011;47574;52.090;5.244;2022-12-07T06:56:07;8.31;;;3.4;;
61675;SDS011;47574;52.090;5.244;2022-12-07T06:57:43;8.31;;;3.6;;
61675;SDS011;47574;52.090;5.244;2022-12-07T06:59:20;6.4;;;3.3;;
61675;SDS011;47574;52.090;5.244;2022-12-07T07:02:33;8.1;;;3.4;;
61675;SDS011;47574;52.090;5.244;2022-12-07T07:04:09;5.7;;;2.9;;
61675;SDS011;47574;52.090;5.244;2022-12-07T07:05:45;12.6;;;3.6;;
61675;SDS011;47574;52.090;5.244;2022-12-07T07:07:21;9.1;;;3.7;;
61675;SDS011;47574;52.090;5.244;2022-12-07T07:10:34;8.6;;;3.4;;
61675;SDS011;47574;52.090;5.244;2022-12-07T07:12:11;9.81;;;4.0;;
61675;SDS011;47574;52.090;5.244;2022-12-07T07:13:47;11.2;;;4.8;;
61675;SDS011;47574;52.090;5.244;2022-12-07T07:16:59;12.6;;;6.3;;
61675;SDS011;47574;52.090;5.244;2022-12-07T07:18:36;9.4;;;4.61;;
61675;SDS011;47574;52.090;5.244;2022-12-07T07:20:13;8.2;;;4.2;;
61675;SDS011;47574;52.090;5.244;2022-12-07T07:23:25;10.0;;;3.5;;
61675;SDS011;47574;52.090;5.244;2022-12-07T07:25:01;9.4;;;3.4;;
61675;SDS011;47574;52.090;5.244;2022-12-07T07:26:38;9.1;;;3.5;;
61675;SDS011;47574;52.090;5.244;2022-12-07T07:28:15;12.0;;;3.5;;
61675;SDS011;47574;52.090;5.244;2022-12-07T07:31:28;18.0;;;3.9;;
61675;SDS011;47574;52.090;5.244;2022-12-07T07:33:04;20.9;;;4.41;;
61675;SDS011;47574;52.090;5.244;2022-12-07T07:34:41;16.9;;;3.8;;
61675;SDS011;47574;52.090;5.244;2022-12-07T07:37:54;22.4;;;4.61;;
61675;SDS011;47574;52.090;5.244;2022-12-07T07:39:31;16.0;;;3.6;;
61675;SDS011;47574;52.090;5.244;2022-12-07T07:41:07;16.61;;;3.5;;
61675;SDS011;47574;52.090;5.244;2022-12-07T07:44:19;11.3;;;3.4;;
61675;SDS011;47574;52.090;5.244;2022-12-07T07:45:55;12.0;;;3.2;;
61675;SDS011;47574;52.090;5.244;2022-12-07T07:47:31;15.3;;;3.2;;
61675;SDS011;47574;52.090;5.244;2022-12-07T07:49:08;11.6;;;3.6;;
61675;SDS011;47574;52.090;5.244;2022-12-07T07:52:20;10.5;;;3.5;;
61675;SDS011;47574;52.090;5.244;2022-12-07T07:53:57;9.81;;;3.1;;
61675;SDS011;47574;52.090;5.244;2022-12-07T07:55:33;15.9;;;3.5;;
61675;SDS011;47574;52.090;5.244;2022-12-07T07:58:46;11.0;;;2.9;;
61675;SDS011;47574;52.090;5.244;2022-12-07T08:00:22;10.9;;;3.5;;
61675;SDS011;47574;52.090;5.244;2022-12-07T08:01:58;11.7;;;3.3;;
61675;SDS011;47574;52.090;5.244;2022-12-07T08:05:12;6.7;;;3.1;;
61675;SDS011;47574;52.090;5.244;2022-12-07T08:06:48;8.5;;;3.1;;
61675;SDS011;47574;52.090;5.244;2022-12-07T08:08:25;9.71;;;3.4;;
61675;SDS011;47574;52.090;5.244;2022-12-07T08:10:01;10.3;;;3.5;;
61675;SDS011;47574;52.090;5.244;2022-12-07T08:13:14;7.7;;;3.0;;
61675;SDS011;47574;52.090;5.244;2022-12-07T08:14:51;9.5;;;3.4;;
61675;SDS011;47574;52.090;5.244;2022-12-07T08:16:28;9.6;;;2.9;;
61675;SDS011;47574;52.090;5.244;2022-12-07T08:19:42;9.9;;;3.2;;
61675;SDS011;47574;52.090;5.244;2022-12-07T08:21:18;9.9;;;3.3;;
61675;SDS011;47574;52.090;5.244;2022-12-07T08:22:54;10.1;;;4.2;;
61675;SDS011;47574;52.090;5.244;2022-12-07T08:26:09;9.31;;;4.2;;
61675;SDS011;47574;52.090;5.244;2022-12-07T08:27:48;12.0;;;4.0;;
61675;SDS011;47574;52.090;5.244;2022-12-07T08:29:25;10.21;;;5.2;;
61675;SDS011;47574;52.090;5.244;2022-12-07T08:31:02;13.1;;;5.4;;
61675;SDS011;47574;52.090;5.244;2022-12-07T08:34:15;14.1;;;4.1;;
61675;SDS011;47574;52.090;5.244;2022-12-07T08:35:52;11.8;;;3.1;;
61675;SDS011;47574;52.090;5.244;2022-12-07T08:37:28;10.6;;;2.7;;
61675;SDS011;47574;52.090;5.244;2022-12-07T08:40:40;8.6;;;2.8;;
61675;SDS011;47574;52.090;5.244;2022-12-07T08:42:16;9.21;;;2.5;;
61675;SDS011;47574;52.090;5.244;2022-12-07T08:43:53;7.1;;;2.7;;
61675;SDS011;47574;52.090;5.244;2022-12-07T08:47:08;9.31;;;2.6;;
61675;SDS011;47574;52.090;5.244;2022-12-07T08:48:47;9.31;;;2.21;;
61675;SDS011;47574;52.090;5.244;2022-12-07T08:50:28;8.4;;;2.5;;
61675;SDS011;47574;52.090;5.244;2022-12-07T08:52:07;10.1;;;2.4;;
61675;SDS011;47574;52.090;5.244;2022-12-07T08:55:20;8.9;;;2.1;;
61675;SDS011;47574;52.090;5.244;2022-12-07T08:56:57;9.21;;;2.21;;
61675;SDS011;47574;52.090;5.244;2022-12-07T08:58:33;6.6;;;2.1;;
61675;SDS011;47574;52.090;5.244;2022-12-07T09:01:49;8.0;;;1.9;;
61675;SDS011;47574;52.090;5.244;2022-12-07T09:03:26;10.6;;;2.5;;
61675;SDS011;47574;52.090;5.244;2022-12-07T09:05:02;10.7;;;2.4;;
61675;SDS011;47574;52.090;5.244;2022-12-07T09:06:40;9.9;;;2.4;;
61675;SDS011;47574;52.090;5.244;2022-12-07T09:09:54;10.21;;;2.5;;
61675;SDS011;47574;52.090;5.244;2022-12-07T09:11:32;7.9;;;2.4;;
61675;SDS011;47574;52.090;5.244;2022-12-07T09:13:08;8.6;;;2.6;;
61675;SDS011;47574;52.090;5.244;2022-12-07T09:16:20;9.21;;;2.4;;
61675;SDS011;47574;52.090;5.244;2022-12-07T09:17:56;7.2;;;2.21;;
61675;SDS011;47574;52.090;5.244;2022-12-07T09:19:33;8.71;;;2.21;;
61675;SDS011;47574;52.090;5.244;2022-12-07T09:21:09;5.7;;;2.21;;
61675;SDS011;47574;52.090;5.244;2022-12-07T09:24:22;6.3;;;1.8;;
61675;SDS011;47574;52.090;5.244;2022-12-07T09:25:58;9.1;;;2.6;;
61675;SDS011;47574;52.090;5.244;2022-12-07T09:27:35;8.5;;;2.31;;
61675;SDS011;47574;52.090;5.244;2022-12-07T09:30:48;8.6;;;2.5;;
61675;SDS011;47574;52.090;5.244;2022-12-07T09:32:25;10.7;;;2.6;;
61675;SDS011;47574;52.090;5.244;2022-12-07T09:34:01;8.71;;;2.5;;
61675;SDS011;47574;52.090;5.244;2022-12-07T09:37:13;6.1;;;1.8;;
61675;SDS011;47574;52.090;5.244;2022-12-07T09:38:50;7.9;;;2.4;;
61675;SDS011;47574;52.090;5.244;2022-12-07T09:40:27;10.8;;;2.31;;
61675;SDS011;47574;52.090;5.244;2022-12-07T09:42:04;10.8;;;2.8;;
61675;SDS011;47574;52.090;5.244;2022-12-07T09:45:21;6.1;;;2.31;;
61675;SDS011;47574;52.090;5.244;2022-12-07T09:47:00;7.4;;;1.9;;
61675;SDS011;47574;52.090;5.244;2022-12-07T09:48:37;9.81;;;2.4;;
61675;SDS011;47574;52.090;5.244;2022-12-07T09:52:02;9.6;;;2.5;;
61675;SDS011;47574;52.090;5.244;2022-12-07T09:53:54;8.1;;;2.5;;
61675;SDS011;47574;52.090;5.244;2022-12-07T09:55:33;7.1;;;2.6;;
61675;SDS011;47574;52.090;5.244;2022-12-07T09:57:19;10.4;;;2.4;;
61675;SDS011;47574;52.090;5.244;2022-12-07T09:59:06;8.81;;;2.5;;
61675;SDS011;47574;52.090;5.244;2022-12-07T10:02:34;10.3;;;2.5;;
61675;SDS011;47574;52.090;5.244;2022-12-07T10:04:13;5.9;;;2.21;;
61675;SDS011;47574;52.090;5.244;2022-12-07T10:05:53;8.81;;;2.5;;
61675;SDS011;47574;52.090;5.244;2022-12-07T10:07:30;6.9;;;2.21;;
61675;SDS011;47574;52.090;5.244;2022-12-07T10:10:48;6.0;;;1.8;;
61675;SDS011;47574;52.090;5.244;2022-12-07T10:12:28;5.9;;;1.9;;
61675;SDS011;47574;52.090;5.244;2022-12-07T10:14:10;8.0;;;2.4;;
61675;SDS011;47574;52.090;5.244;2022-12-07T10:15:50;12.7;;;4.91;;
61675;SDS011;47574;52.090;5.244;2022-12-07T10:19:19;6.5;;;2.8;;
61675;SDS011;47574;52.090;5.244;2022-12-07T10:21:00;7.3;;;2.6;;
61675;SDS011;47574;52.090;5.244;2022-12-07T10:24:30;9.0;;;2.6;;
61675;SDS011;47574;52.090;5.244;2022-12-07T10:26:40;6.0;;;2.31;;
61675;SDS011;47574;52.090;5.244;2022-12-07T10:28:33;10.0;;;1.9;;
61675;SDS011;47574;52.090;5.244;2022-12-07T10:30:12;6.7;;;2.0;;
61675;SDS011;47574;52.090;5.244;2022-12-07T10:33:39;10.3;;;1.9;;
61675;SDS011;47574;52.090;5.244;2022-12-07T10:35:26;7.2;;;1.7;;
61675;SDS011;47574;52.090;5.244;2022-12-07T10:37:20;8.4;;;2.31;;
61675;SDS011;47574;52.090;5.244;2022-12-07T10:38:58;8.4;;;2.5;;
61675;SDS011;47574;52.090;5.244;2022-12-07T10:42:16;8.1;;;2.9;;
61675;SDS011;47574;52.090;5.244;2022-12-07T10:43:55;5.8;;;1.9;;
61675;SDS011;47574;52.090;5.244;2022-12-07T10:45:34;8.71;;;2.4;;
61675;SDS011;47574;52.090;5.244;2022-12-07T10:47:22;10.8;;;2.4;;
61675;SDS011;47574;52.090;5.244;2022-12-07T10:49:11;7.9;;;3.3;;
61675;SDS011;47574;52.090;5.244;2022-12-07T10:52:26;6.8;;;2.1;;
61675;SDS011;47574;52.090;5.244;2022-12-07T10:54:20;9.31;;;2.6;;
61675;SDS011;47574;52.090;5.244;2022-12-07T10:56:17;7.6;;;2.7;;
61675;SDS011;47574;52.090;5.244;2022-12-07T10:58:24;9.0;;;3.3;;
61675;SDS011;47574;52.090;5.244;2022-12-07T11:00:15;6.2;;;2.8;;
61675;SDS011;47574;52.090;5.244;2022-12-07T11:01:57;7.0;;;2.21;;
61675;SDS011;47574;52.090;5.244;2022-12-07T11:03:53;9.4;;;3.1;;
61675;SDS011;47574;52.090;5.244;2022-12-07T11:05:53;8.81;;;2.31;;
61675;SDS011;47574;52.090;5.244;2022-12-07T11:09:38;9.4;;;1.9;;
61675;SDS011;47574;52.090;5.244;2022-12-07T11:11:44;8.81;;;4.0;;
61675;SDS011;47574;52.090;5.244;2022-12-07T11:13:32;8.71;;;3.5;;
61675;SDS011;47574;52.090;5.244;2022-12-07T11:15:21;7.2;;;3.0;;
61675;SDS011;47574;52.090;5.244;2022-12-07T11:17:04;4.8;;;1.7;;
61675;SDS011;47574;52.090;5.244;2022-12-07T11:18:51;4.0;;;1.9;;
61675;SDS011;47574;52.090;5.244;2022-12-07T11:20:43;6.8;;;1.5;;
61675;SDS011;47574;52.090;5.244;2022-12-07T11:24:14;6.4;;;1.8;;
61675;SDS011;47574;52.090;5.244;2022-12-07T11:25:54;7.1;;;1.9;;
61675;SDS011;47574;52.090;5.244;2022-12-07T11:27:43;5.6;;;1.6;;
61675;SDS011;47574;52.090;5.244;2022-12-07T11:29:37;5.6;;;1.6;;
61675;SDS011;47574;52.090;5.244;2022-12-07T11:31:31;9.1;;;1.7;;
61675;SDS011;47574;52.090;5.244;2022-12-07T11:33:29;5.7;;;1.7;;
61675;SDS011;47574;52.090;5.244;2022-12-07T11:35:17;6.1;;;1.7;;
61675;SDS011;47574;52.090;5.244;2022-12-07T11:38:50;6.9;;;1.7;;
61675;SDS011;47574;52.090;5.244;2022-12-07T11:40:30;8.4;;;1.9;;
61675;SDS011;47574;52.090;5.244;2022-12-07T11:42:12;6.5;;;1.8;;
61675;SDS011;47574;52.090;5.244;2022-12-07T11:43:58;5.3;;;1.8;;
61675;SDS011;47574;52.090;5.244;2022-12-07T11:45:41;8.2;;;2.0;;
61675;SDS011;47574;52.090;5.244;2022-12-07T11:49:08;6.2;;;2.1;;
61675;SDS011;47574;52.090;5.244;2022-12-07T11:50:51;7.3;;;1.8;;
61675;SDS011;47574;52.090;5.244;2022-12-07T11:52:43;6.7;;;2.31;;
61675;SDS011;47574;52.090;5.244;2022-12-07T11:54:25;7.6;;;1.5;;
61675;SDS011;47574;52.090;5.244;2022-12-07T11:56:08;4.7;;;1.8;;
61675;SDS011;47574;52.090;5.244;2022-12-07T11:59:36;6.0;;;2.1;;
61675;SDS011;47574;52.090;5.244;2022-12-07T12:01:25;6.5;;;1.8;;
61675;SDS011;47574;52.090;5.244;2022-12-07T12:03:24;8.0;;;2.21;;
61675;SDS011;47574;52.090;5.244;2022-12-07T12:05:12;8.4;;;2.0;;
61675;SDS011;47574;52.090;5.244;2022-12-07T12:06:53;6.8;;;2.0;;
61675;SDS011;47574;52.090;5.244;2022-12-07T12:10:15;6.8;;;2.1;;
61675;SDS011;47574;52.090;5.244;2022-12-07T12:12:01;3.9;;;1.6;;
61675;SDS011;47574;52.090;5.244;2022-12-07T12:14:01;6.7;;;1.8;;
61675;SDS011;47574;52.090;5.244;2022-12-07T12:16:01;5.9;;;1.6;;
61675;SDS011;47574;52.090;5.244;2022-12-07T12:19:18;7.6;;;2.0;;
61675;SDS011;47574;52.090;5.244;2022-12-07T12:21:02;7.6;;;1.7;;
61675;SDS011;47574;52.090;5.244;2022-12-07T12:22:44;7.6;;;2.4;;
61675;SDS011;47574;52.090;5.244;2022-12-07T12:24:26;8.0;;;2.0;;
61675;SDS011;47574;52.090;5.244;2022-12-07T12:26:08;7.1;;;2.0;;
61675;SDS011;47574;52.090;5.244;2022-12-07T12:27:54;9.71;;;1.8;;
61675;SDS011;47574;52.090;5.244;2022-12-07T12:29:33;8.71;;;2.21;;
61675;SDS011;47574;52.090;5.244;2022-12-07T12:32:51;6.1;;;1.9;;
61675;SDS011;47574;52.090;5.244;2022-12-07T12:34:30;7.0;;;1.7;;
61675;SDS011;47574;52.090;5.244;2022-12-07T12:36:18;8.1;;;2.6;;
61675;SDS011;47574;52.090;5.244;2022-12-07T12:38:31;8.31;;;1.5;;
61675;SDS011;47574;52.090;5.244;2022-12-07T12:40:42;7.4;;;1.9;;
61675;SDS011;47574;52.090;5.244;2022-12-07T12:42:19;6.1;;;2.1;;
61675;SDS011;47574;52.090;5.244;2022-12-07T12:45:32;5.8;;;1.8;;
61675;SDS011;47574;52.090;5.244;2022-12-07T12:47:38;6.0;;;1.9;;
61675;SDS011;47574;52.090;5.244;2022-12-07T12:50:22;6.2;;;2.31;;
61675;SDS011;47574;52.090;5.244;2022-12-07T12:53:21;5.7;;;2.1;;
61675;SDS011;47574;52.090;5.244;2022-12-07T12:58:31;8.0;;;2.21;;
61675;SDS011;47574;52.090;5.244;2022-12-07T13:00:23;9.5;;;2.9;;
61675;SDS011;47574;52.090;5.244;2022-12-07T13:02:15;8.4;;;2.7;;
61675;SDS011;47574;52.090;5.244;2022-12-07T13:03:56;16.0;;;4.41;;
61675;SDS011;47574;52.090;5.244;2022-12-07T13:05:33;10.0;;;3.8;;